createdAt,value
2022-08-17T00:01:53.263Z,56.18
2022-08-17T00:05:38.327Z,56.64
2022-08-17T00:09:22.465Z,57.09
2022-08-17T00:13:10.289Z,57.09
2022-08-17T00:16:57.717Z,56.89
2022-08-17T00:20:40.712Z,57.13
2022-08-17T00:24:24.854Z,57.43
2022-08-17T00:28:08.019Z,57.80
2022-08-17T00:31:50.898Z,57.43
2022-08-17T00:35:33.739Z,57.83
2022-08-17T00:39:16.509Z,57.69
2022-08-17T00:43:10.834Z,57.63
2022-08-17T00:46:53.916Z,57.43
2022-08-17T00:50:36.678Z,57.22
2022-08-17T00:54:25.783Z,57.23
2022-08-17T00:58:10.861Z,57.73
2022-08-17T01:01:53.765Z,57.61
2022-08-17T01:05:42.412Z,57.70
2022-08-17T01:09:25.436Z,57.56
2022-08-17T01:13:09.692Z,58.07
2022-08-17T01:16:55.500Z,58.51
2022-08-17T01:20:47.955Z,58.62
2022-08-17T01:24:33.777Z,59.11
2022-08-17T01:28:53.162Z,59.45
2022-08-17T01:32:20.379Z,59.45
2022-08-17T01:36:05.355Z,59.28
2022-08-17T01:39:52.051Z,59.30
2022-08-17T01:43:39.815Z,60.05
2022-08-17T01:47:22.634Z,60.45
2022-08-17T01:51:07.595Z,60.54
2022-08-17T01:54:53.727Z,60.67
2022-08-17T01:58:37.711Z,60.88
2022-08-17T02:02:31.004Z,60.97
2022-08-17T02:06:27.120Z,61.20
2022-08-17T02:10:19.870Z,61.66
2022-08-17T02:14:04.207Z,60.73
2022-08-17T02:17:47.131Z,60.36
2022-08-17T02:21:38.624Z,59.62
2022-08-17T02:25:23.068Z,59.79
2022-08-17T02:29:06.094Z,60.63
2022-08-17T02:32:49.092Z,61.01
2022-08-17T02:36:32.285Z,61.41
2022-08-17T02:40:16.663Z,61.55
2022-08-17T02:44:38.750Z,61.32
2022-08-17T02:48:30.636Z,61.78
2022-08-17T02:52:14.689Z,61.83
2022-08-17T02:55:57.734Z,61.49
2022-08-17T02:59:48.300Z,61.86
2022-08-17T03:03:31.797Z,62.00
2022-08-17T03:07:15.279Z,61.67
2022-08-17T03:10:58.066Z,61.65
2022-08-17T03:14:43.617Z,61.66
2022-08-17T03:18:27.966Z,61.63
2022-08-17T03:22:36.445Z,61.10
2022-08-17T03:26:15.497Z,60.96
2022-08-17T03:30:00.464Z,60.92
2022-08-17T03:33:43.215Z,60.69
2022-08-17T03:37:25.991Z,61.06
2022-08-17T03:41:08.765Z,61.20
2022-08-17T03:44:52.414Z,60.56
2022-08-17T03:48:59.426Z,60.19
2022-08-17T03:52:59.916Z,60.52
2022-08-17T03:56:44.307Z,60.85
2022-08-17T04:00:27.657Z,60.87
2022-08-17T04:04:12.189Z,61.93
2022-08-17T04:07:55.135Z,62.25
2022-08-17T04:11:37.991Z,62.09
2022-08-17T04:15:21.230Z,61.32
2022-08-17T04:19:05.655Z,60.83
2022-08-17T04:23:02.096Z,60.86
2022-08-17T04:26:54.250Z,61.11
2022-08-17T04:30:38.734Z,60.84
2022-08-17T04:34:21.713Z,60.84
2022-08-17T04:38:09.235Z,60.27
2022-08-17T04:42:17.232Z,60.20
2022-08-17T04:46:01.708Z,59.31
2022-08-17T04:49:44.925Z,59.49
2022-08-17T04:53:29.349Z,59.57
2022-08-17T04:57:12.103Z,59.79
2022-08-17T05:00:54.957Z,59.48
2022-08-17T05:04:41.722Z,59.51
2022-08-17T05:08:24.767Z,59.39
2022-08-17T05:12:10.286Z,59.23
2022-08-17T05:15:55.656Z,59.25
2022-08-17T05:19:38.405Z,59.24
2022-08-17T05:23:22.477Z,58.34
2022-08-17T05:27:06.122Z,58.31
2022-08-17T05:30:50.897Z,58.02
2022-08-17T05:34:33.660Z,57.74
2022-08-17T05:38:18.771Z,57.37
2022-08-17T05:42:02.982Z,56.75
2022-08-17T05:46:00.336Z,56.58
2022-08-17T05:49:44.527Z,56.45
2022-08-17T05:53:35.285Z,56.64
2022-08-17T05:57:53.384Z,56.50
2022-08-17T06:01:47.908Z,56.42
2022-08-17T06:06:01.275Z,56.41
2022-08-17T06:09:49.763Z,55.91
2022-08-17T06:13:46.572Z,55.83
2022-08-17T06:17:31.110Z,55.26
2022-08-17T06:21:19.211Z,54.69
2022-08-17T06:25:13.847Z,55.02
2022-08-17T06:28:59.892Z,54.39
2022-08-17T06:32:46.226Z,54.30
2022-08-17T06:36:42.694Z,54.51
2022-08-17T06:40:50.849Z,54.35
2022-08-17T06:44:49.775Z,54.63
2022-08-17T06:48:38.951Z,54.62
2022-08-17T06:52:45.355Z,54.93
2022-08-17T06:56:53.264Z,54.38
2022-08-17T07:00:41.751Z,54.04
2022-08-17T07:04:27.215Z,52.74
2022-08-17T07:08:16.657Z,53.08
2022-08-17T07:12:03.258Z,52.03
2022-08-17T07:15:50.243Z,51.69
2022-08-17T07:19:36.832Z,50.86
2022-08-17T07:23:24.288Z,51.65
2022-08-17T07:27:13.354Z,52.12
2022-08-17T07:30:56.452Z,52.37
2022-08-17T07:35:12.871Z,52.69
2022-08-17T07:39:02.434Z,51.95
2022-08-17T07:43:05.681Z,51.28
2022-08-17T07:47:07.367Z,51.49
2022-08-17T07:50:53.191Z,51.30
2022-08-17T07:54:39.641Z,50.80
2022-08-17T07:58:24.142Z,50.67
2022-08-17T08:02:31.696Z,50.58
2022-08-17T08:06:21.839Z,50.32
2022-08-17T08:10:10.657Z,50.18
2022-08-17T08:13:53.475Z,50.74
2022-08-17T08:17:37.937Z,50.63
2022-08-17T08:21:30.038Z,50.83
2022-08-17T08:25:22.249Z,50.00
2022-08-17T08:29:10.887Z,50.08
2022-08-17T08:33:04.173Z,50.58
2022-08-17T08:37:14.113Z,50.31
2022-08-17T08:41:05.277Z,49.75
2022-08-17T08:45:00.376Z,50.20
2022-08-17T08:49:12.067Z,50.13
2022-08-17T08:53:12.104Z,50.14
2022-08-17T08:57:23.223Z,49.40
2022-08-17T09:01:06.180Z,49.10
2022-08-17T09:05:13.788Z,48.64
2022-08-17T09:09:05.028Z,48.98
2022-08-17T09:12:55.088Z,49.00
2022-08-17T09:16:40.470Z,47.65
2022-08-17T09:20:27.295Z,47.70
2022-08-17T09:24:15.612Z,47.51
2022-08-17T09:28:08.041Z,47.43
2022-08-17T09:31:56.113Z,47.06
2022-08-17T09:35:43.745Z,46.81
2022-08-17T09:39:32.226Z,46.69
2022-08-17T09:43:23.381Z,45.82
2022-08-17T09:47:10.998Z,45.68
2022-08-17T09:51:05.113Z,45.50
2022-08-17T09:54:50.872Z,45.81
2022-08-17T09:58:44.905Z,45.66
2022-08-17T10:02:54.356Z,45.44
2022-08-17T10:06:47.647Z,44.92
2022-08-17T10:10:34.589Z,44.70
2022-08-17T10:14:37.054Z,44.82
2022-08-17T10:18:37.897Z,44.40
2022-08-17T10:22:42.985Z,43.77
2022-08-17T10:26:28.139Z,43.11
2022-08-17T10:30:33.442Z,42.54
2022-08-17T10:34:43.176Z,42.56
2022-08-17T10:38:37.581Z,42.87
2022-08-17T10:42:30.907Z,42.38
2022-08-17T10:46:30.602Z,42.59
2022-08-17T10:50:48.008Z,42.57
2022-08-17T10:54:42.808Z,42.69
2022-08-17T10:58:28.558Z,42.58
2022-08-17T11:02:17.807Z,42.80
2022-08-17T11:06:15.312Z,43.02
2022-08-17T11:10:15.295Z,43.05
2022-08-17T11:14:14.174Z,42.96
2022-08-17T11:18:08.272Z,42.65
2022-08-17T11:22:31.276Z,41.33
2022-08-17T11:26:26.310Z,41.13
2022-08-17T11:30:12.974Z,40.64
2022-08-17T11:34:05.657Z,40.78
2022-08-17T11:37:55.046Z,40.86
2022-08-17T11:41:46.142Z,41.21
2022-08-17T11:45:40.295Z,41.79
2022-08-17T11:50:06.174Z,40.98
2022-08-17T11:54:31.620Z,40.71
2022-08-17T11:58:37.361Z,40.10
2022-08-17T12:02:47.559Z,38.98
2022-08-17T12:06:48.271Z,38.29
2022-08-17T12:10:34.300Z,38.47
2022-08-17T12:14:32.275Z,38.01
2022-08-17T12:18:24.531Z,37.36
2022-08-17T12:22:14.295Z,38.30
2022-08-17T12:26:00.786Z,35.66
2022-08-17T12:29:45.359Z,34.91
2022-08-17T12:33:28.960Z,34.73
2022-08-17T12:37:18.602Z,34.28
2022-08-17T12:41:22.374Z,33.62
2022-08-17T12:45:06.630Z,33.49
2022-08-17T12:48:58.951Z,33.20
2022-08-17T12:52:44.581Z,34.97
2022-08-17T12:56:29.904Z,33.66
2022-08-17T13:00:17.777Z,34.29
2022-08-17T13:04:00.691Z,32.95
2022-08-17T13:07:46.575Z,32.97
2022-08-17T13:11:29.919Z,34.32
2022-08-17T13:15:21.652Z,32.36
2022-08-17T13:19:08.044Z,31.54
2022-08-17T13:22:57.084Z,30.80
2022-08-17T13:26:41.540Z,30.81
2022-08-17T13:30:28.109Z,30.05
2022-08-17T13:34:15.567Z,29.51
2022-08-17T13:38:02.440Z,28.72
2022-08-17T13:41:45.802Z,28.47
2022-08-17T13:45:38.907Z,28.79
2022-08-17T13:49:22.573Z,29.07
2022-08-17T13:53:18.791Z,28.42
2022-08-17T13:57:04.627Z,28.17
2022-08-17T14:00:47.449Z,28.43
2022-08-17T14:04:32.647Z,27.71
2022-08-17T14:08:18.716Z,27.90
2022-08-17T14:12:02.269Z,27.88
2022-08-17T14:15:55.621Z,27.79
2022-08-17T14:19:40.064Z,27.63
2022-08-17T14:23:24.381Z,26.57
2022-08-17T14:27:08.994Z,26.80
2022-08-17T14:30:54.599Z,26.38
2022-08-17T14:34:37.379Z,26.43
2022-08-17T14:38:20.826Z,26.87
2022-08-17T14:42:05.325Z,28.86
2022-08-17T14:45:48.275Z,25.78
2022-08-17T14:49:31.540Z,25.04
2022-08-17T14:53:16.352Z,24.41
2022-08-17T14:57:22.464Z,24.49
2022-08-17T15:01:03.300Z,24.17
2022-08-17T15:04:47.626Z,22.57
2022-08-17T15:08:30.585Z,22.49
2022-08-17T15:12:16.988Z,22.18
2022-08-17T15:16:00.369Z,21.82
2022-08-17T15:19:44.504Z,22.42
2022-08-17T15:23:28.011Z,21.07
2022-08-17T15:27:11.451Z,20.00
2022-08-17T15:30:54.658Z,19.16
2022-08-17T15:34:37.520Z,18.97
2022-08-17T15:38:22.863Z,19.13
2022-08-17T15:42:06.067Z,19.98
2022-08-17T15:46:00.191Z,19.32
2022-08-17T15:49:45.320Z,19.70
2022-08-17T15:53:29.406Z,19.10
2022-08-17T15:57:12.140Z,20.31
2022-08-17T16:01:16.797Z,20.59
2022-08-17T16:05:04.262Z,21.17
2022-08-17T16:08:54.899Z,21.59
2022-08-17T16:12:38.004Z,22.07
2022-08-17T16:16:20.805Z,22.52
2022-08-17T16:20:03.885Z,23.07
2022-08-17T16:23:47.038Z,22.47
2022-08-17T16:27:31.146Z,23.69
2022-08-17T16:31:14.573Z,23.91
2022-08-17T16:34:57.637Z,25.15
2022-08-17T16:38:40.353Z,25.96
2022-08-17T16:42:26.128Z,27.01
2022-08-17T16:46:11.393Z,27.54
2022-08-17T16:49:55.003Z,28.06
2022-08-17T16:53:37.763Z,29.16
2022-08-17T16:57:20.514Z,30.09
2022-08-17T17:01:03.307Z,30.81
2022-08-17T17:04:52.017Z,31.31
2022-08-17T17:08:43.660Z,31.83
2022-08-17T17:12:59.453Z,31.42
2022-08-17T17:16:37.302Z,31.42
2022-08-17T17:20:25.989Z,31.27
2022-08-17T17:24:12.969Z,31.65
2022-08-17T17:28:02.070Z,31.22
2022-08-17T17:31:50.741Z,31.41
2022-08-17T17:35:40.735Z,32.19
2022-08-17T17:39:31.691Z,32.18
2022-08-17T17:43:38.261Z,32.41
2022-08-17T17:47:22.249Z,32.72
2022-08-17T17:51:11.902Z,33.33
2022-08-17T17:55:05.924Z,33.44
2022-08-17T17:58:52.987Z,33.86
2022-08-17T18:02:51.482Z,34.51
2022-08-17T18:06:45.455Z,34.85
2022-08-17T18:10:35.500Z,35.03
2022-08-17T18:14:28.161Z,35.54
2022-08-17T18:18:37.733Z,36.08
2022-08-17T18:22:23.210Z,36.10
2022-08-17T18:26:06.241Z,36.35
2022-08-17T18:29:49.856Z,36.53
2022-08-17T18:33:33.020Z,36.71
2022-08-17T18:37:32.870Z,36.98
2022-08-17T18:41:23.619Z,37.06
2022-08-17T18:45:06.949Z,37.02
2022-08-17T18:48:58.889Z,37.19
2022-08-17T18:52:43.525Z,37.33
2022-08-17T18:56:30.957Z,37.79
2022-08-17T19:00:17.287Z,37.94
2022-08-17T19:04:00.443Z,38.05
2022-08-17T19:07:46.199Z,38.36
2022-08-17T19:11:31.991Z,38.67
2022-08-17T19:15:19.030Z,38.71
2022-08-17T19:19:06.979Z,38.80
2022-08-17T19:23:01.478Z,38.97
2022-08-17T19:26:55.382Z,38.72
2022-08-17T19:30:38.965Z,38.83
2022-08-17T19:34:34.612Z,38.57
2022-08-17T19:38:31.383Z,38.67
2022-08-17T19:42:20.685Z,38.69
2022-08-17T19:46:08.809Z,38.91
2022-08-17T19:49:59.806Z,38.90
2022-08-17T19:54:06.901Z,39.23
2022-08-17T19:57:57.503Z,39.22
2022-08-17T20:01:44.728Z,39.30
2022-08-17T20:05:29.689Z,39.39
2022-08-17T20:09:21.405Z,39.79
2022-08-17T20:13:07.621Z,40.00
2022-08-17T20:16:50.493Z,39.96
2022-08-17T20:20:37.862Z,40.16
2022-08-17T20:24:27.733Z,40.17
2022-08-17T20:28:21.068Z,40.11
2022-08-17T20:32:18.316Z,40.21
2022-08-17T20:36:05.328Z,40.23
2022-08-17T20:40:14.510Z,40.42
2022-08-17T20:44:06.766Z,40.55
2022-08-17T20:48:17.371Z,40.51
2022-08-17T20:52:01.429Z,40.75
2022-08-17T20:55:55.855Z,41.08
2022-08-17T20:59:59.344Z,40.99
2022-08-17T21:03:51.920Z,40.85
2022-08-17T21:07:52.498Z,41.39
2022-08-17T21:12:04.185Z,41.30
2022-08-17T21:15:53.248Z,41.33
2022-08-17T21:20:09.767Z,41.47
2022-08-17T21:24:02.203Z,41.44
2022-08-17T21:27:50.620Z,42.74
2022-08-17T21:31:36.598Z,42.73
2022-08-17T21:35:48.275Z,41.83
2022-08-17T21:39:34.397Z,41.87
2022-08-17T21:43:24.100Z,41.42
2022-08-17T21:47:16.580Z,41.70
2022-08-17T21:51:03.579Z,42.03
2022-08-17T21:54:53.614Z,42.32
2022-08-17T21:58:40.144Z,42.97
2022-08-17T22:02:25.586Z,42.82
2022-08-17T22:06:23.070Z,42.63
2022-08-17T22:10:07.648Z,42.47
2022-08-17T22:13:51.715Z,43.04
2022-08-17T22:17:46.717Z,44.86
2022-08-17T22:21:29.523Z,46.89
2022-08-17T22:25:21.789Z,46.58
2022-08-17T22:29:06.067Z,47.67
2022-08-17T22:32:49.819Z,47.91
2022-08-17T22:36:33.660Z,50.87
2022-08-17T22:40:26.704Z,53.77
2022-08-17T22:44:25.454Z,56.52
2022-08-17T22:48:09.009Z,58.92
2022-08-17T22:52:07.888Z,61.08
2022-08-17T22:56:09.504Z,64.17
2022-08-17T22:59:55.496Z,68.72
2022-08-17T23:03:53.818Z,71.75
2022-08-17T23:07:36.650Z,73.04
2022-08-17T23:11:23.811Z,74.66
2022-08-17T23:15:32.884Z,75.52
2022-08-17T23:19:17.471Z,76.90
2022-08-17T23:23:00.714Z,77.41
2022-08-17T23:26:43.467Z,76.90
2022-08-17T23:30:28.428Z,76.96
2022-08-17T23:34:13.946Z,77.61
2022-08-17T23:37:56.652Z,78.75
2022-08-17T23:41:39.936Z,78.63
2022-08-17T23:45:22.801Z,79.16
2022-08-17T23:49:06.996Z,78.84
2022-08-17T23:52:50.210Z,78.58
2022-08-17T23:56:33.545Z,78.35
